»·PEaware :: N441QF KSAC-KMCC

N441QF :: KSAC-KMCC

FLIGHT INFORMATION

Flight Status: Arrived
Operator: Privately registered:
United States
More flights under this callsign
Pilot: Matt C. (2632)
Aircraft: CESSNA 172 SKYHAWK
(C172)
More flights by this aircraft type
Origin: KSAC Sacramento Executive
United States
Destination: KMCC McClellan
United States
More flights between these airports :: More routes between these airports
Route: SAC
File this flight plan on PilotEdge
Remarks:
Altitude:
(Current/Filed)
3,000ft
Speed:
(Current/Filed)
113kts
Departed: 15-Jun-17 09:54 PM
Arrived: 15-Jun-17 10:33 PM
Distance/Time
Traveled:
11nm/0:39
Distance/Time
To Go:
Arrived

Flight Plot

Page will automatically refresh every two minutes.

Flight plan parsing failed; only flown route is shown


Map Options




Map Legend


Flown Route
Filed Route
Departure Airport
Arrival Airport
Navaid (VOR, NDB)
Fix

Horizontal Profiles

Position Reports

Time Latitude Longitude Heading Altitude Ground
Speed
15-Jun-17 21:49 38.515321 -121.495786 132 27ft 0kts
15-Jun-17 21:50 38.515268 -121.495713 132 27ft 0kts
15-Jun-17 21:51 38.515268 -121.495713 132 27ft 0kts
15-Jun-17 21:52 38.515268 -121.495713 132 27ft 0kts
15-Jun-17 21:53 38.513392 -121.495777 89 27ft 7kts
15-Jun-17 21:54 38.513393 -121.495221 91 27ft 0kts
15-Jun-17 21:55 38.512225 -121.494907 212 27ft 21kts
15-Jun-17 21:56 38.496280 -121.507698 214 624ft 74kts
15-Jun-17 21:57 38.479294 -121.523452 214 1410ft 76kts
15-Jun-17 21:58 38.480193 -121.540955 16 2076ft 81kts
15-Jun-17 21:59 38.499523 -121.529300 35 2797ft 76kts
15-Jun-17 22:00 38.519910 -121.509564 35 3058ft 104kts
15-Jun-17 22:01 38.523820 -121.476435 133 2744ft 133kts
15-Jun-17 22:02 38.497175 -121.443124 133 2222ft 122kts
15-Jun-17 22:03 38.486041 -121.403582 105 2203ft 114kts
15-Jun-17 22:04 38.492251 -121.371225 10 2202ft 116kts
15-Jun-17 22:05 38.523933 -121.381021 347 2128ft 110kts
15-Jun-17 22:06 38.548818 -121.385671 356 2104ft 75kts
15-Jun-17 22:07 38.569657 -121.388019 354 1724ft 75kts
15-Jun-17 22:08 38.590274 -121.390850 359 1247ft 74kts
15-Jun-17 22:09 38.610726 -121.393059 345 798ft 73kts
15-Jun-17 22:10 38.631064 -121.396317 350 582ft 76kts
15-Jun-17 22:11 38.652595 -121.399082 359 922ft 77kts
15-Jun-17 22:12 38.673666 -121.405332 355 1662ft 82kts
15-Jun-17 22:13 38.697100 -121.402160 6 2141ft 102kts
15-Jun-17 22:14 38.727423 -121.399505 3 2273ft 110kts
15-Jun-17 22:15 38.758498 -121.396843 2 2320ft 117kts
15-Jun-17 22:16 38.791456 -121.393784 3 2196ft 122kts
15-Jun-17 22:17 38.824784 -121.390885 359 2125ft 119kts
15-Jun-17 22:18 38.854810 -121.383138 67 2144ft 111kts
15-Jun-17 22:19 38.833982 -121.372906 208 2210ft 113kts
15-Jun-17 22:20 38.803059 -121.379129 191 2180ft 119kts
15-Jun-17 22:21 38.792279 -121.360852 17 2164ft 119kts
15-Jun-17 22:22 38.824913 -121.361739 359 2153ft 117kts
15-Jun-17 22:23 38.844773 -121.382028 239 2156ft 114kts
15-Jun-17 22:24 38.814704 -121.386573 186 2172ft 116kts
15-Jun-17 22:25 38.787731 -121.378083 95 2250ft 112kts
15-Jun-17 22:26 38.813363 -121.365754 357 2267ft 115kts
15-Jun-17 22:27 38.844881 -121.374108 306 2051ft 126kts
15-Jun-17 22:28 38.829693 -121.397321 171 2168ft 115kts
15-Jun-17 22:29 38.800719 -121.398294 189 2184ft 86kts
15-Jun-17 22:30 38.776895 -121.401024 174 1932ft 83kts
15-Jun-17 22:31 38.754821 -121.399880 179 1412ft 74kts
15-Jun-17 22:32 38.734028 -121.400159 179 1114ft 78kts
15-Jun-17 22:33 38.712562 -121.400263 178 707ft 76kts
15-Jun-17 22:34 38.691221 -121.400507 177 305ft 72kts
15-Jun-17 22:35 38.679991 -121.400486 186 78ft 24kts
15-Jun-17 22:36 38.679991 -121.400486 186 78ft 24kts
15-Jun-17 22:37 38.679991 -121.400486 186 78ft 24kts
15-Jun-17 22:38 38.679991 -121.400486 186 78ft 24kts
15-Jun-17 22:39 38.679991 -121.400486 186 78ft 24kts
15-Jun-17 22:40 38.679991 -121.400486 186 78ft 24kts
15-Jun-17 22:41 38.679991 -121.400486 186 78ft 24kts
15-Jun-17 22:42 38.679991 -121.400486 186 78ft 24kts
15-Jun-17 22:43 38.679991 -121.400486 186 78ft 24kts
15-Jun-17 22:44 38.679991 -121.400486 186 78ft 24kts
15-Jun-17 22:45 38.679991 -121.400486 186 78ft 24kts
15-Jun-17 22:46 38.679991 -121.400486 186 78ft 24kts
15-Jun-17 22:47 38.679991 -121.400486 186 78ft 24kts
15-Jun-17 22:48 38.679991 -121.400486 186 78ft 24kts
15-Jun-17 22:49 38.679991 -121.400486 186 78ft 24kts

Navigation Log

Ident Type
Flight plan parsing failed, navigation log unavailable